createdAt,value
2023-04-15T00:03:05.849Z,7.30
2023-04-15T00:08:08.022Z,8.40
2023-04-15T00:13:10.025Z,8.00
2023-04-15T00:18:12.798Z,6.80
2023-04-15T00:23:14.816Z,8.20
2023-04-15T00:28:17.216Z,7.40
2023-04-15T00:33:19.136Z,7.20
2023-04-15T00:38:21.125Z,6.40
2023-04-15T00:43:23.074Z,8.10
2023-04-15T00:48:26.795Z,7.60
2023-04-15T00:53:28.716Z,7.30
2023-04-15T00:58:30.955Z,7.60
2023-04-15T01:03:33.051Z,6.70
2023-04-15T01:08:36.384Z,7.10
2023-04-15T01:13:38.556Z,8.40
2023-04-15T01:18:41.579Z,7.70
2023-04-15T01:23:46.914Z,8.00
2023-04-15T01:28:48.840Z,7.20
2023-04-15T01:33:50.991Z,8.20
2023-04-15T01:38:52.987Z,7.20
2023-04-15T01:43:55.454Z,6.50
2023-04-15T01:48:57.547Z,7.30
2023-04-15T01:53:59.580Z,7.00
2023-04-15T01:59:01.807Z,7.50
2023-04-15T02:04:04.202Z,7.80
2023-04-15T02:09:06.024Z,8.40
2023-04-15T02:14:07.954Z,7.50
2023-04-15T02:19:10.410Z,7.80
2023-04-15T02:24:12.838Z,6.50
2023-04-15T02:29:14.851Z,7.90
2023-04-15T02:34:17.071Z,7.60
2023-04-15T02:39:19.762Z,7.30
2023-04-15T02:44:23.264Z,6.70
2023-04-15T02:49:26.119Z,7.60
2023-04-15T02:54:28.454Z,7.30
2023-04-15T02:59:30.357Z,7.70
2023-04-15T03:04:32.188Z,6.10
2023-04-15T03:09:34.660Z,6.40
2023-04-15T03:14:36.587Z,6.00
2023-04-15T03:19:38.608Z,6.70
2023-04-15T03:24:40.936Z,6.10
2023-04-15T03:29:42.862Z,6.30
2023-04-15T03:34:44.882Z,5.30
2023-04-15T03:39:46.776Z,7.00
2023-04-15T03:44:48.710Z,6.30
2023-04-15T03:49:50.670Z,5.80
2023-04-15T03:54:52.629Z,6.30
2023-04-15T03:59:54.571Z,6.20
2023-04-15T04:04:56.678Z,6.00
2023-04-15T04:09:58.705Z,5.50
2023-04-15T04:15:01.209Z,5.70
2023-04-15T04:20:03.209Z,5.10
2023-04-15T04:25:05.870Z,5.50
2023-04-15T04:30:08.477Z,5.50
2023-04-15T04:35:11.077Z,6.70
2023-04-15T04:40:13.586Z,6.60
2023-04-15T04:45:15.564Z,5.80
2023-04-15T04:50:17.603Z,6.00
2023-04-15T04:55:19.732Z,5.60
2023-04-15T05:00:22.629Z,6.60
2023-04-15T05:05:24.612Z,6.00
2023-04-15T05:10:26.545Z,6.30
2023-04-15T05:15:28.437Z,6.10
2023-04-15T05:20:30.575Z,5.40
2023-04-15T05:25:32.550Z,6.30
2023-04-15T05:30:35.176Z,5.70
2023-04-15T05:35:37.239Z,7.30
2023-04-15T05:40:39.301Z,7.50
2023-04-15T05:45:42.200Z,7.80
2023-04-15T05:50:44.106Z,8.40
2023-04-15T05:55:46.528Z,5.20
2023-04-15T06:00:49.018Z,8.20
2023-04-15T06:05:51.121Z,6.40
2023-04-15T06:10:53.059Z,7.60
2023-04-15T06:15:54.964Z,6.40
2023-04-15T06:20:57.086Z,7.40
2023-04-15T06:25:59.040Z,6.90
2023-04-15T06:31:02.155Z,7.10
2023-04-15T06:36:04.897Z,5.50
2023-04-15T06:41:07.543Z,5.90
2023-04-15T06:46:10.145Z,5.30
2023-04-15T06:51:12.331Z,6.90
2023-04-15T06:56:15.450Z,6.10
2023-04-15T07:01:17.509Z,5.80
2023-04-15T07:06:19.443Z,5.90
2023-04-15T07:11:22.088Z,5.60
2023-04-15T07:16:24.447Z,5.20
2023-04-15T07:21:27.345Z,5.10
2023-04-15T07:26:29.951Z,6.20
2023-04-15T07:31:31.857Z,6.20
2023-04-15T07:36:34.398Z,5.50
2023-04-15T07:41:36.997Z,6.40
2023-04-15T07:46:39.187Z,6.20
2023-04-15T07:51:41.322Z,6.40
2023-04-15T07:56:46.447Z,5.80
2023-04-15T08:01:49.760Z,5.00
2023-04-15T08:06:52.224Z,6.00
2023-04-15T08:11:54.422Z,5.80
2023-04-15T08:16:56.865Z,5.30
2023-04-15T08:21:58.831Z,6.10
2023-04-15T08:27:03.952Z,6.00
2023-04-15T08:32:07.427Z,5.70
2023-04-15T08:37:12.811Z,5.40
2023-04-15T08:42:26.909Z,5.40
2023-04-15T08:47:34.195Z,5.40
2023-04-15T08:52:36.913Z,5.30
2023-04-15T08:57:39.587Z,5.40
2023-04-15T09:02:42.993Z,6.80
2023-04-15T09:07:45.268Z,6.30
2023-04-15T09:12:47.165Z,5.70
2023-04-15T09:17:49.111Z,5.60
2023-04-15T09:22:51.951Z,6.10
2023-04-15T09:27:57.149Z,5.70
2023-04-15T09:33:10.741Z,6.60
2023-04-15T09:38:12.929Z,5.60
2023-04-15T09:43:19.494Z,6.40
2023-04-15T09:48:31.234Z,5.20
2023-04-15T09:53:36.178Z,5.80
2023-04-15T09:58:38.507Z,5.40
2023-04-15T10:03:42.150Z,6.00
2023-04-15T10:08:44.361Z,4.70
2023-04-15T10:13:48.858Z,5.40
2023-04-15T10:18:58.347Z,4.60
2023-04-15T10:24:03.214Z,4.60
2023-04-15T10:29:05.667Z,6.50
2023-04-15T10:34:08.559Z,5.60
2023-04-15T10:39:50.301Z,4.80
2023-04-15T10:44:57.136Z,6.20
2023-04-15T10:50:01.570Z,6.50
2023-04-15T10:55:12.416Z,5.50
2023-04-15T11:00:16.887Z,6.80
2023-04-15T11:05:21.191Z,5.40
2023-04-15T11:10:26.502Z,5.20
2023-04-15T11:15:36.228Z,9.50
2023-04-15T11:20:39.518Z,7.20
2023-04-15T11:25:45.182Z,7.30
2023-04-15T11:30:47.908Z,5.90
2023-04-15T11:35:52.547Z,7.10
2023-04-15T11:40:54.549Z,6.50
2023-04-15T11:46:02.080Z,6.40
2023-04-15T11:51:06.667Z,5.80
2023-04-15T11:56:11.247Z,7.30
2023-04-15T12:01:13.428Z,6.20
2023-04-15T12:06:23.128Z,6.10
2023-04-15T12:11:35.702Z,5.40
2023-04-15T12:16:48.416Z,5.40
2023-04-15T12:21:53.186Z,5.00
2023-04-15T12:26:57.936Z,6.00
2023-04-15T12:32:14.623Z,6.70
2023-04-15T12:37:17.326Z,4.50
2023-04-15T12:42:20.017Z,5.50
2023-04-15T12:47:22.403Z,4.90
2023-04-15T12:52:24.956Z,5.30
2023-04-15T12:57:27.409Z,5.40
2023-04-15T13:02:29.518Z,4.70
2023-04-15T13:07:31.906Z,4.10
2023-04-15T13:12:36.777Z,3.70
2023-04-15T13:17:38.751Z,4.30
2023-04-15T13:22:42.230Z,4.40
2023-04-15T13:27:44.366Z,3.70
2023-04-15T13:32:46.862Z,5.70
2023-04-15T13:37:50.208Z,4.20
2023-04-15T13:42:52.839Z,3.70
2023-04-15T13:47:55.980Z,4.00
2023-04-15T13:52:57.948Z,4.60
2023-04-15T13:57:59.961Z,3.60
2023-04-15T14:03:02.116Z,4.30
2023-04-15T14:08:04.792Z,3.60
2023-04-15T14:13:06.806Z,3.20
2023-04-15T14:18:09.769Z,3.30
2023-04-15T14:23:11.927Z,3.60
2023-04-15T14:28:14.075Z,3.80
2023-04-15T14:33:16.092Z,3.50
2023-04-15T14:38:18.216Z,5.20
2023-04-15T14:43:21.669Z,4.10
2023-04-15T14:48:23.706Z,3.80
2023-04-15T14:53:26.206Z,3.90
2023-04-15T14:58:28.160Z,2.70
2023-04-15T15:03:30.756Z,4.50
2023-04-15T15:08:35.965Z,2.90
2023-04-15T15:13:38.122Z,3.90
2023-04-15T15:18:40.780Z,4.50
2023-04-15T15:23:42.680Z,4.60
2023-04-15T15:28:45.772Z,2.50
2023-04-15T15:33:47.758Z,3.50
2023-04-15T15:38:49.634Z,2.60
2023-04-15T15:43:54.798Z,2.50
2023-04-15T15:48:57.989Z,2.50
2023-04-15T15:54:00.986Z,2.60
2023-04-15T15:59:03.030Z,2.30
2023-04-15T16:04:05.700Z,2.60
2023-04-15T16:09:07.811Z,2.40
2023-04-15T16:14:10.201Z,3.30
2023-04-15T16:19:13.115Z,3.00
2023-04-15T16:24:15.490Z,3.40
2023-04-15T16:29:17.482Z,2.80
2023-04-15T16:34:19.524Z,2.90
2023-04-15T16:39:23.654Z,2.90
2023-04-15T16:44:26.427Z,3.00
2023-04-15T16:49:30.050Z,2.30
2023-04-15T16:54:35.625Z,2.20
2023-04-15T16:59:38.788Z,2.90
2023-04-15T17:04:41.593Z,2.50
2023-04-15T17:09:44.312Z,2.50
2023-04-15T17:14:46.483Z,2.40
2023-04-15T17:19:49.217Z,3.20
2023-04-15T17:24:51.451Z,2.70
2023-04-15T17:29:54.514Z,3.00
2023-04-15T17:34:56.547Z,3.10
2023-04-15T17:39:58.775Z,2.70
2023-04-15T17:45:00.848Z,3.70
2023-04-15T17:50:03.431Z,2.50
2023-04-15T17:55:06.601Z,3.30
2023-04-15T18:00:10.223Z,2.00
2023-04-15T18:05:12.348Z,2.60
2023-04-15T18:10:14.807Z,2.50
2023-04-15T18:15:17.287Z,2.50
2023-04-15T18:20:19.639Z,2.60
2023-04-15T18:25:21.611Z,1.80
2023-04-15T18:30:23.810Z,2.00
2023-04-15T18:35:25.680Z,1.80
2023-04-15T18:40:27.712Z,1.60
2023-04-15T18:45:30.601Z,1.60
2023-04-15T18:50:32.737Z,1.30
2023-04-15T18:55:35.524Z,1.50
2023-04-15T19:00:41.229Z,1.50
2023-04-15T19:05:43.246Z,1.60
2023-04-15T19:10:46.193Z,1.20
2023-04-15T19:15:48.591Z,1.60
2023-04-15T19:20:52.250Z,1.50
2023-04-15T19:25:56.774Z,2.80
2023-04-15T19:30:59.525Z,2.40
2023-04-15T19:36:04.084Z,2.00
2023-04-15T19:41:06.197Z,2.30
2023-04-15T19:46:08.542Z,2.10
2023-04-15T19:51:11.000Z,2.60
2023-04-15T19:56:14.303Z,1.90
2023-04-15T20:01:16.271Z,2.40
2023-04-15T20:06:18.225Z,2.00
2023-04-15T20:11:21.280Z,3.60
2023-04-15T20:16:24.254Z,3.00
2023-04-15T20:21:26.671Z,2.90
2023-04-15T20:26:30.210Z,2.50
2023-04-15T20:31:35.794Z,2.30
2023-04-15T20:36:38.319Z,2.20
2023-04-15T20:41:40.433Z,2.90
2023-04-15T20:46:42.442Z,2.40
2023-04-15T20:51:44.425Z,2.70
2023-04-15T20:56:46.474Z,2.70
2023-04-15T21:01:48.475Z,2.90
2023-04-15T21:06:51.798Z,3.20
2023-04-15T21:12:01.199Z,2.70
2023-04-15T21:17:10.047Z,2.70
2023-04-15T21:22:13.060Z,2.30
2023-04-15T21:27:15.620Z,3.00
2023-04-15T21:32:17.662Z,3.00
2023-04-15T21:37:19.806Z,2.90
2023-04-15T21:42:21.751Z,2.20
2023-04-15T21:47:23.807Z,2.80
2023-04-15T21:52:25.759Z,3.20
2023-04-15T21:57:27.690Z,2.90
2023-04-15T22:02:29.775Z,2.10
2023-04-15T22:07:31.892Z,2.60
2023-04-15T22:12:33.857Z,2.90
2023-04-15T22:17:36.546Z,2.90
2023-04-15T22:22:44.180Z,2.70
2023-04-15T22:27:46.863Z,2.50
2023-04-15T22:32:48.816Z,3.00
2023-04-15T22:37:52.269Z,3.20
2023-04-15T22:42:54.706Z,2.70
2023-04-15T22:47:56.738Z,2.70
2023-04-15T22:52:58.712Z,2.70
2023-04-15T22:58:00.684Z,3.00
2023-04-15T23:03:02.902Z,3.10
2023-04-15T23:08:05.492Z,3.20
2023-04-15T23:13:07.465Z,2.20
2023-04-15T23:18:09.608Z,2.90
2023-04-15T23:23:11.615Z,2.80
2023-04-15T23:28:13.839Z,3.10
2023-04-15T23:33:15.880Z,3.00
2023-04-15T23:38:17.827Z,3.10
2023-04-15T23:43:19.852Z,3.30
2023-04-15T23:48:23.354Z,2.60
2023-04-15T23:53:25.346Z,2.70
2023-04-15T23:58:27.293Z,2.60
